Weather at Tri-State/Milton J. Ferguson Field

Public forecast

Using degrees Fahrenheit for public forecast. Weather courtesy of forecast.io.

Current aviation weather report (METAR) for Tri-State/Milton J. Ferguson Field

Retrieved 2021/10/15 23:51 UTC (21 minutes ago):

KHTS 152351Z 15004KT 10SM BKN060 BKN075 OVC085 24/17 A2981 RMK AO2 SLP088 T02390167 10272 20239 57012

Aviation forecast (TAF) for Tri-State/Milton J. Ferguson Field

Retrieved 2021-10-16 00:27 UTC (0 seconds ago):

TAF KHTS 152324Z 1600/1624 20004KT P6SM VCSH BKN040 TEMPO 1600/1602 3SM SHRA BKN025 FM160700 28009G16KT 5SM SHRA OVC015 FM161300 27007G16KT P6SM OVC010 FM161600 28008G16KT P6SM BKN020